Ferkessedougou Airport


Codes: DIFK/FEK
Name: Ferkessedougou Airport
City: Ferkessedougou
Country: Cote dIvoire
Elevation: 1102 ft.

Photos at Ferkessedougou Airport


   Photos courtesy of SpottingLog. You can add your own sightings and photos by signing up for a free trial today.



No photos found.

Weather at Ferkessedougou Airport


Time (UTC)DescriptionTempratureWindCloud coverageVisibilityPressureHumidity
26-Jun-2024 00:00Light Rain25°C4 mph, S97%10000m1011hPa79%
26-Jun-2024 03:00Light Rain24°C9 mph, SW96%10000m1011hPa83%
26-Jun-2024 06:00Light Rain23°C7 mph, SW90%10000m1012hPa90%
26-Jun-2024 09:00Light Rain24°C9 mph, SW99%10000m1014hPa86%
26-Jun-2024 12:00Overcast Clouds30°C7 mph, SW89%10000m1012hPa58%
26-Jun-2024 15:00Light Rain32°C7 mph, SE48%10000m1010hPa53%
26-Jun-2024 18:00Broken Clouds29°C7 mph, S72%10000m1008hPa61%
26-Jun-2024 21:00Overcast Clouds25°C7 mph, S99%10000m1011hPa78%
27-Jun-2024 00:00Light Rain25°C7 mph, S99%10000m1012hPa82%
27-Jun-2024 03:00Overcast Clouds24°C7 mph, SW97%10000m1011hPa86%
27-Jun-2024 06:00Overcast Clouds22°C4 mph, SW87%10000m1012hPa93%
27-Jun-2024 09:00Overcast Clouds28°C7 mph, S100%10000m1012hPa68%
27-Jun-2024 12:00Overcast Clouds32°C4 mph, S100%10000m1011hPa51%
27-Jun-2024 15:00Overcast Clouds33°C0 mph, NW100%10000m1008hPa47%
27-Jun-2024 18:00Overcast Clouds31°C0 mph, S100%10000m1008hPa54%
27-Jun-2024 21:00Light Rain27°C4 mph, SE82%10000m1012hPa72%
28-Jun-2024 00:00Light Rain24°C4 mph, S78%10000m1012hPa88%
28-Jun-2024 03:00Light Rain23°C4 mph, S28%10000m1012hPa91%
28-Jun-2024 06:00Light Rain22°C7 mph, S35%10000m1013hPa96%
28-Jun-2024 09:00Light Rain25°C9 mph, SW75%10000m1014hPa81%
28-Jun-2024 12:00Broken Clouds30°C7 mph, S78%10000m1013hPa57%
28-Jun-2024 15:00Broken Clouds32°C7 mph, S72%10000m1010hPa49%
28-Jun-2024 18:00Broken Clouds30°C7 mph, S67%10000m1010hPa54%
28-Jun-2024 21:00Clear Sky26°C7 mph, S8%10000m1012hPa72%
29-Jun-2024 00:00Clear Sky25°C7 mph, SW9%10000m1012hPa77%
29-Jun-2024 03:00Scattered Clouds24°C7 mph, SW46%10000m1012hPa80%
29-Jun-2024 06:00Broken Clouds23°C9 mph, S57%10000m1013hPa88%
29-Jun-2024 09:00Broken Clouds27°C11 mph, SW76%10000m1013hPa72%
29-Jun-2024 12:00Overcast Clouds32°C9 mph, SW87%10000m1011hPa53%
29-Jun-2024 15:00Broken Clouds35°C4 mph, SW74%10000m1009hPa42%
29-Jun-2024 18:00Broken Clouds31°C4 mph, S78%10000m1009hPa52%
29-Jun-2024 21:00Moderate Rain24°C7 mph, S38%10000m1013hPa90%
30-Jun-2024 00:00Light Rain23°C7 mph, SW66%10000m1012hPa91%
30-Jun-2024 03:00Scattered Clouds23°C9 mph, SW25%10000m1011hPa93%
30-Jun-2024 06:00Scattered Clouds22°C7 mph, SW46%10000m1013hPa95%
30-Jun-2024 09:00Overcast Clouds24°C9 mph, SW100%10000m1015hPa84%
30-Jun-2024 12:00Overcast Clouds27°C9 mph, S100%10000m1014hPa72%
30-Jun-2024 15:00Broken Clouds31°C7 mph, S80%10000m1011hPa52%
30-Jun-2024 18:00Broken Clouds29°C7 mph, S57%10000m1010hPa59%
30-Jun-2024 21:00Broken Clouds25°C7 mph, S55%10000m1013hPa78%